createdAt,value
2023-04-19T00:00:10.375Z,100860.38
2023-04-19T00:05:32.570Z,100851.41
2023-04-19T00:10:54.416Z,100841.06
2023-04-19T00:16:16.886Z,100847.22
2023-04-19T00:21:38.784Z,100851.81
2023-04-19T00:27:00.586Z,100841.25
2023-04-19T00:32:22.464Z,100830.34
2023-04-19T00:37:44.314Z,100815.25
2023-04-19T00:43:06.133Z,100808.59
2023-04-19T00:48:29.292Z,100807.03
2023-04-19T00:53:52.474Z,100809.56
2023-04-19T00:59:15.344Z,100796.78
2023-04-19T01:04:37.410Z,100800.22
2023-04-19T01:09:59.345Z,100780.94
2023-04-19T01:15:21.188Z,100790.16
2023-04-19T01:20:43.049Z,100786.09
2023-04-19T01:26:05.952Z,100785.38
2023-04-19T01:31:27.829Z,100768.47
2023-04-19T01:36:49.875Z,100778.59
2023-04-19T01:42:11.759Z,100784.69
2023-04-19T01:47:33.704Z,100766.81
2023-04-19T01:52:55.571Z,100759.19
2023-04-19T01:58:17.384Z,100768.59
2023-04-19T02:03:40.269Z,100758.47
2023-04-19T02:09:02.379Z,100771.34
2023-04-19T02:14:24.233Z,100773.88
2023-04-19T02:19:46.032Z,100762.69
2023-04-19T02:25:08.242Z,100760.06
2023-04-19T02:30:30.156Z,100760.28
2023-04-19T02:35:51.971Z,100750.22
2023-04-19T02:41:13.830Z,100765.66
2023-04-19T02:46:35.697Z,100747.75
2023-04-19T02:51:57.539Z,100738.25
2023-04-19T02:57:19.331Z,100741.50
2023-04-19T03:02:42.453Z,100727.16
2023-04-19T03:08:04.622Z,100735.78
2023-04-19T03:13:26.435Z,100730.56
2023-04-19T03:18:49.480Z,100722.16
2023-04-19T03:24:11.542Z,100726.34
2023-04-19T03:29:33.372Z,100708.66
2023-04-19T03:34:55.366Z,100689.88
2023-04-19T03:40:17.218Z,100683.06
2023-04-19T03:45:39.252Z,100705.13
2023-04-19T03:51:01.087Z,100693.31
2023-04-19T03:56:22.891Z,100688.94
2023-04-19T04:01:44.710Z,100681.81
2023-04-19T04:07:06.568Z,100682.63
2023-04-19T04:12:28.383Z,100664.13
2023-04-19T04:17:50.535Z,100681.16
2023-04-19T04:23:12.402Z,100668.97
2023-04-19T04:28:34.224Z,100668.25
2023-04-19T04:33:56.016Z,100646.03
2023-04-19T04:39:17.818Z,100646.94
2023-04-19T04:44:40.235Z,100633.25
2023-04-19T04:50:02.767Z,100657.88
2023-04-19T04:55:24.586Z,100638.25
2023-04-19T05:00:46.603Z,100642.25
2023-04-19T05:06:08.404Z,100645.03
2023-04-19T05:11:30.239Z,100618.31
2023-04-19T05:16:52.085Z,100646.25
2023-04-19T05:22:14.004Z,100644.41
2023-04-19T05:27:35.821Z,100641.06
2023-04-19T05:32:57.657Z,100641.72
2023-04-19T05:38:19.869Z,100638.19
2023-04-19T05:43:41.701Z,100617.00
2023-04-19T05:49:03.560Z,100626.41
2023-04-19T05:54:25.435Z,100631.34
2023-04-19T05:59:47.359Z,100633.59
2023-04-19T06:05:11.071Z,100633.34
2023-04-19T06:10:44.377Z,100637.91
2023-04-19T06:16:13.551Z,100628.34
2023-04-19T06:21:35.402Z,100623.94
2023-04-19T06:26:57.390Z,100628.03
2023-04-19T06:32:19.286Z,100618.97
2023-04-19T06:37:41.229Z,100603.69
2023-04-19T06:43:03.176Z,100611.75
2023-04-19T06:48:27.766Z,100616.69
2023-04-19T06:53:50.325Z,100621.38
2023-04-19T06:59:17.277Z,100621.03
2023-04-19T07:04:39.331Z,100635.28
2023-04-19T07:10:01.268Z,100631.34
2023-04-19T07:15:23.221Z,100625.44
2023-04-19T07:20:45.016Z,100626.06
2023-04-19T07:26:07.559Z,100630.50
2023-04-19T07:31:29.371Z,100628.94
2023-04-19T07:36:51.336Z,100635.22
2023-04-19T07:42:13.443Z,100635.16
2023-04-19T07:47:35.281Z,100632.41
2023-04-19T07:52:57.102Z,100631.63
2023-04-19T07:58:18.967Z,100635.34
2023-04-19T08:03:40.919Z,100633.47
2023-04-19T08:09:02.896Z,100635.38
2023-04-19T08:14:37.765Z,100625.97
2023-04-19T08:20:06.486Z,100611.09
2023-04-19T08:25:28.293Z,100622.19
2023-04-19T08:30:50.144Z,100622.81
2023-04-19T08:36:12.667Z,100630.59
2023-04-19T08:41:35.812Z,100626.47
2023-04-19T08:46:59.322Z,100632.19
2023-04-19T08:52:22.541Z,100628.66
2023-04-19T08:57:44.512Z,100627.81
2023-04-19T09:03:08.064Z,100635.50
2023-04-19T09:08:31.386Z,100618.44
2023-04-19T09:14:08.294Z,100635.06
2023-04-19T09:19:45.724Z,100634.56
2023-04-19T09:30:37.858Z,100653.63
2023-04-19T09:36:06.702Z,100651.19
2023-04-19T09:41:28.624Z,100646.34
2023-04-19T09:46:52.991Z,100636.66
2023-04-19T09:52:15.305Z,100650.47
2023-04-19T09:57:37.135Z,100651.81
2023-04-19T10:02:59.142Z,100662.09
2023-04-19T10:08:21.097Z,100647.16
2023-04-19T10:13:45.146Z,100638.06
2023-04-19T10:19:10.798Z,100656.34
2023-04-19T10:24:33.778Z,100655.88
2023-04-19T10:29:55.582Z,100659.34
2023-04-19T10:35:26.190Z,100649.03
2023-04-19T10:41:01.208Z,100658.94
2023-04-19T10:46:23.211Z,100666.59
2023-04-19T10:51:51.069Z,100664.69
2023-04-19T10:57:12.940Z,100641.19
2023-04-19T11:02:34.945Z,100663.78
2023-04-19T11:07:56.805Z,100640.09
2023-04-19T11:13:18.739Z,100654.44
2023-04-19T11:18:40.548Z,100647.50
2023-04-19T11:24:12.204Z,100649.53
2023-04-19T11:29:34.031Z,100651.44
2023-04-19T11:34:56.554Z,100653.31
2023-04-19T11:40:20.456Z,100638.53
2023-04-19T11:45:42.813Z,100627.22
2023-04-19T11:51:05.317Z,100633.50
2023-04-19T11:56:27.197Z,100639.53
2023-04-19T12:01:49.027Z,100636.19
2023-04-19T12:07:12.164Z,100629.22
2023-04-19T12:12:34.070Z,100644.56
2023-04-19T12:18:02.777Z,100646.22
2023-04-19T12:23:24.655Z,100643.59
2023-04-19T12:28:46.445Z,100651.44
2023-04-19T12:34:08.269Z,100656.03
2023-04-19T12:39:30.656Z,100650.00
2023-04-19T12:44:52.470Z,100664.91
2023-04-19T12:50:15.580Z,100667.72
2023-04-19T12:55:37.424Z,100660.53
2023-04-19T13:00:59.271Z,100674.91
2023-04-19T13:06:21.227Z,100669.91
2023-04-19T13:11:43.079Z,100646.91
2023-04-19T13:17:04.940Z,100664.53
2023-04-19T13:22:26.849Z,100646.22
2023-04-19T13:27:48.660Z,100650.72
2023-04-19T13:33:10.783Z,100643.38
2023-04-19T13:38:32.736Z,100655.06
2023-04-19T13:43:54.547Z,100651.63
2023-04-19T13:49:16.350Z,100647.28
2023-04-19T13:54:38.199Z,100635.38
2023-04-19T14:00:00.015Z,100626.63
2023-04-19T14:05:21.943Z,100637.06
2023-04-19T14:10:43.876Z,100641.72
2023-04-19T14:16:06.033Z,100633.00
2023-04-19T14:21:27.943Z,100616.09
2023-04-19T14:27:03.158Z,100626.22
2023-04-19T14:32:31.405Z,100618.75
2023-04-19T14:37:53.329Z,100608.97
2023-04-19T14:43:15.496Z,100604.09
2023-04-19T14:48:37.323Z,100605.69
2023-04-19T14:53:59.409Z,100615.59
2023-04-19T14:59:21.363Z,100616.84
2023-04-19T15:04:43.418Z,100618.91
2023-04-19T15:10:06.088Z,100665.22
2023-04-19T15:15:28.058Z,100692.25
2023-04-19T15:20:50.257Z,100708.78
2023-04-19T15:26:12.107Z,100691.03
2023-04-19T15:31:34.021Z,100673.91
2023-04-19T15:36:55.873Z,100693.34
2023-04-19T15:42:17.731Z,100693.13
2023-04-19T15:47:39.632Z,100682.38
2023-04-19T15:53:01.843Z,100681.88
2023-04-19T15:58:23.865Z,100691.28
2023-04-19T16:03:45.938Z,100689.03
2023-04-19T16:09:07.897Z,100687.06
2023-04-19T16:14:29.741Z,100695.13
2023-04-19T16:19:51.629Z,100706.41
2023-04-19T16:25:14.501Z,100699.53
2023-04-19T16:30:36.321Z,100713.41
2023-04-19T16:35:58.171Z,100720.63
2023-04-19T16:41:20.016Z,100738.41
2023-04-19T16:46:42.784Z,100738.97
2023-04-19T16:52:04.689Z,100743.56
2023-04-19T16:57:26.684Z,100732.09
2023-04-19T17:02:48.583Z,100745.25
2023-04-19T17:08:10.602Z,100750.28
2023-04-19T17:13:32.587Z,100755.09
2023-04-19T17:18:55.630Z,100761.34
2023-04-19T17:24:17.464Z,100765.84
2023-04-19T17:29:39.346Z,100758.75
2023-04-19T17:35:01.220Z,100778.63
2023-04-19T17:40:23.050Z,100776.56
2023-04-19T17:45:44.875Z,100791.78
2023-04-19T17:51:07.511Z,100779.56
2023-04-19T17:56:29.393Z,100789.13
2023-04-19T18:01:51.215Z,100801.53
2023-04-19T18:07:13.406Z,100800.69
2023-04-19T18:12:35.462Z,100813.00
2023-04-19T18:17:57.342Z,100818.41
2023-04-19T18:23:19.220Z,100821.09
2023-04-19T18:28:41.031Z,100806.31
2023-04-19T18:34:02.842Z,100827.31
2023-04-19T18:39:24.704Z,100817.50
2023-04-19T18:44:53.607Z,100813.09
2023-04-19T18:50:19.150Z,100823.09
2023-04-19T18:55:41.312Z,100818.84
2023-04-19T19:01:03.304Z,100819.19
2023-04-19T19:06:25.310Z,100808.78
2023-04-19T19:11:55.959Z,100815.44
2023-04-19T19:17:19.008Z,100820.44
2023-04-19T19:22:40.867Z,100835.59
2023-04-19T19:28:08.281Z,100836.03
2023-04-19T19:33:32.780Z,100837.38
2023-04-19T19:38:54.766Z,100831.31
2023-04-19T19:44:16.655Z,100840.47
2023-04-19T19:55:03.582Z,100834.72
2023-04-19T20:00:42.887Z,100826.03
2023-04-19T20:11:31.869Z,100798.44
2023-04-19T20:16:54.358Z,100816.97
2023-04-19T20:22:16.264Z,100824.78
2023-04-19T20:27:38.135Z,100821.94
2023-04-19T20:33:00.013Z,100815.72
2023-04-19T20:38:21.877Z,100830.13
2023-04-19T20:43:43.754Z,100837.66
2023-04-19T20:49:05.635Z,100840.16
2023-04-19T20:54:27.499Z,100840.91
2023-04-19T20:59:50.231Z,100827.34
2023-04-19T21:05:12.047Z,100838.25
2023-04-19T21:10:33.967Z,100837.44
2023-04-19T21:15:55.904Z,100827.41
2023-04-19T21:21:17.744Z,100837.50
2023-04-19T21:26:39.626Z,100840.41
2023-04-19T21:32:01.610Z,100853.94
2023-04-19T21:37:23.611Z,100862.19
2023-04-19T21:42:45.434Z,100855.44
2023-04-19T21:48:07.256Z,100869.81
2023-04-19T21:53:29.168Z,100865.66
2023-04-19T21:58:51.017Z,100865.66
2023-04-19T22:04:12.858Z,100860.66
2023-04-19T22:09:34.726Z,100841.97
2023-04-19T22:14:56.567Z,100861.88
2023-04-19T22:20:18.570Z,100852.16
2023-04-19T22:25:40.503Z,100873.41
2023-04-19T22:31:02.373Z,100864.94
2023-04-19T22:36:24.242Z,100857.00
2023-04-19T22:41:46.105Z,100846.25
2023-04-19T22:47:07.937Z,100859.78
2023-04-19T22:52:29.859Z,100840.22
2023-04-19T22:57:51.719Z,100846.03
2023-04-19T23:03:13.721Z,100858.94
2023-04-19T23:08:35.601Z,100856.41
2023-04-19T23:13:57.441Z,100852.13
2023-04-19T23:19:19.433Z,100851.38
2023-04-19T23:24:41.451Z,100857.56
2023-04-19T23:30:04.964Z,100845.63
2023-04-19T23:35:26.978Z,100849.22
2023-04-19T23:40:48.883Z,100832.53
2023-04-19T23:46:10.712Z,100837.03
2023-04-19T23:51:32.560Z,100833.31
2023-04-19T23:56:55.195Z,100810.66
